Time;durP1;ratioP1;P1;durP2;ratioP2;P2;SDS_P1;SDS_P2;PMS_P1;PMS_P2;Temp;Humidity;BMP_temperature;BMP_pressure;BME280_temperature;BME280_humidity;BME280_pressure;Samples;Min_cycle;Max_cycle;Signal;HPM_P1;HPM_P2
2023/01/18 00:00:31;;;;;;;4.57;4.40;;;;;;;;;;4952795;29;20434;-67
2023/01/18 00:02:57;;;;;;;4.63;4.33;;;;;;;;;;4952324;29;20438;-68
2023/01/18 00:05:24;;;;;;;4.63;4.33;;;;;;;;;;4951809;28;20927;-68
2023/01/18 00:07:51;;;;;;;5.00;4.80;;;;;;;;;;4952076;29;20445;-68
2023/01/18 00:10:17;;;;;;;5.00;4.60;;;;;;;;;;4952069;29;20525;-68
2023/01/18 00:12:43;;;;;;;4.43;4.20;;;;;;;;;;4951688;29;20495;-68
2023/01/18 00:15:09;;;;;;;4.60;4.40;;;;;;;;;;4951060;29;20446;-68
2023/01/18 00:17:46;;;;;;;4.40;4.20;;;;;;;;;;4951403;29;20439;-68
2023/01/18 00:20:15;;;;;;;4.37;4.17;;;;;;;;;;4951748;29;20423;-67
2023/01/18 00:22:41;;;;;;;3.50;3.40;;;;;;;;;;4951640;29;20445;-69
2023/01/18 00:25:09;;;;;;;4.23;4.07;;;;;;;;;;4951747;29;20447;-69
2023/01/18 00:27:36;;;;;;;4.33;4.13;;;;;;;;;;4952005;29;20423;-67
2023/01/18 00:30:03;;;;;;;4.50;4.40;;;;;;;;;;4951849;29;20439;-68
2023/01/18 00:32:29;;;;;;;4.13;3.93;;;;;;;;;;4951706;29;20589;-68
2023/01/18 00:34:55;;;;;;;4.07;3.87;;;;;;;;;;4951254;29;20486;-69
2023/01/18 00:37:23;;;;;;;4.80;4.40;;;;;;;;;;4951702;29;20963;-68
2023/01/18 00:39:49;;;;;;;5.03;4.83;;;;;;;;;;4951437;29;20415;-67
2023/01/18 00:45:00;;;;;;;4.80;4.50;;;;;;;;;;4951953;29;20591;-70
2023/01/18 00:47:26;;;;;;;5.10;4.80;;;;;;;;;;4951508;29;20533;-69
2023/01/18 00:49:52;;;;;;;4.87;4.57;;;;;;;;;;4951082;29;20425;-69
2023/01/18 00:52:18;;;;;;;6.30;5.90;;;;;;;;;;4951885;29;20467;-68
2023/01/18 00:54:44;;;;;;;5.77;5.30;;;;;;;;;;4951562;29;20446;-67
2023/01/18 00:57:10;;;;;;;6.20;5.80;;;;;;;;;;4934241;29;20839;-68
2023/01/18 00:59:36;;;;;;;7.53;6.83;;;;;;;;;;4950707;29;20814;-69
2023/01/18 01:02:02;;;;;;;6.93;6.37;;;;;;;;;;4932698;29;20438;-68
2023/01/18 01:07:13;;;;;;;10.00;8.33;;;;;;;;;;4951567;29;21687;-68
2023/01/18 01:09:39;;;;;;;7.40;6.70;;;;;;;;;;4950844;29;20423;-68
2023/01/18 01:26:06;;;;;;;10.57;8.70;;;;;;;;;;4951728;29;21030;-67
2023/01/18 01:28:34;;;;;;;7.97;7.20;;;;;;;;;;4951320;29;20438;-67
2023/01/18 01:31:00;;;;;;;17.47;9.60;;;;;;;;;;4951306;28;20421;-69
2023/01/18 01:33:27;;;;;;;14.60;9.53;;;;;;;;;;4934910;29;20482;-68
2023/01/18 01:35:57;;;;;;;17.03;11.17;;;;;;;;;;4951024;29;20458;-66
2023/01/18 01:38:23;;;;;;;42.07;12.10;;;;;;;;;;4933687;29;20481;-67
2023/01/18 01:41:03;;;;;;;39.47;13.63;;;;;;;;;;4951495;29;20434;-68
2023/01/18 01:43:46;;;;;;;31.77;11.87;;;;;;;;;;4951206;29;20795;-67
2023/01/18 01:46:18;;;;;;;21.00;9.20;;;;;;;;;;4932312;29;20416;-69
2023/01/18 01:48:44;;;;;;;11.60;8.10;;;;;;;;;;4931480;29;20837;-67
2023/01/18 01:51:10;;;;;;;6.57;6.17;;;;;;;;;;4940143;29;20419;-68
2023/01/18 01:53:37;;;;;;;6.83;6.23;;;;;;;;;;4950993;29;20490;-68
2023/01/18 01:56:03;;;;;;;20.70;10.57;;;;;;;;;;4950069;29;20445;-68
2023/01/18 01:58:30;;;;;;;6.90;6.20;;;;;;;;;;4951022;29;20418;-67
2023/01/18 02:00:56;;;;;;;7.43;6.67;;;;;;;;;;4933254;29;20805;-67
2023/01/18 02:03:23;;;;;;;7.53;6.80;;;;;;;;;;4950787;29;20437;-68
2023/01/18 02:05:52;;;;;;;6.10;5.60;;;;;;;;;;4950832;29;20502;-67
2023/01/18 02:08:21;;;;;;;5.77;5.47;;;;;;;;;;4950569;29;20446;-68
2023/01/18 02:10:51;;;;;;;5.77;5.37;;;;;;;;;;4951455;29;20856;-67
2023/01/18 02:13:17;;;;;;;5.33;5.03;;;;;;;;;;4951192;28;20540;-67
2023/01/18 02:15:51;;;;;;;5.63;5.23;;;;;;;;;;4953671;29;21740;-66
2023/01/18 02:18:36;;;;;;;6.90;6.40;;;;;;;;;;4953102;29;20442;-68
2023/01/18 02:21:08;;;;;;;6.10;5.70;;;;;;;;;;4954120;29;21191;-67
2023/01/18 02:23:43;;;;;;;5.67;5.27;;;;;;;;;;4954309;29;20521;-67
2023/01/18 02:26:09;;;;;;;5.97;5.63;;;;;;;;;;4953600;29;20442;-68
2023/01/18 02:28:39;;;;;;;5.10;4.83;;;;;;;;;;4953231;29;20430;-67
2023/01/18 02:31:12;;;;;;;5.43;5.03;;;;;;;;;;4954793;29;20908;-68
2023/01/18 02:33:53;;;;;;;5.40;5.10;;;;;;;;;;4954211;29;20486;-67
2023/01/18 02:36:39;;;;;;;6.27;5.37;;;;;;;;;;4953706;29;20533;-68
2023/01/18 02:39:09;;;;;;;5.10;4.70;;;;;;;;;;4953171;29;20427;-67
2023/01/18 02:47:21;;;;;;;4.20;4.10;;;;;;;;;;4954177;29;20949;-68
2023/01/18 02:49:47;;;;;;;4.17;4.07;;;;;;;;;;4953203;29;20433;-66
2023/01/18 02:52:52;;;;;;;2.63;2.53;;;;;;;;;;4953278;29;20470;-67
2023/01/18 02:55:18;;;;;;;2.43;2.43;;;;;;;;;;4911160;29;20475;-66
2023/01/18 02:57:45;;;;;;;1.80;1.80;;;;;;;;;;4912702;29;20907;-67
2023/01/18 03:00:13;;;;;;;1.10;1.10;;;;;;;;;;4931845;29;20449;-67
2023/01/18 03:02:40;;;;;;;1.20;1.20;;;;;;;;;;4953382;29;20414;-67
2023/01/18 03:05:08;;;;;;;1.13;1.13;;;;;;;;;;4953545;29;20579;-67
2023/01/18 03:07:39;;;;;;;1.00;1.00;;;;;;;;;;4953119;29;20470;-68
2023/01/18 03:10:09;;;;;;;2.53;1.10;;;;;;;;;;4952252;29;20458;-67
2023/01/18 03:12:47;;;;;;;1.33;1.30;;;;;;;;;;4935499;29;20984;-67
2023/01/18 03:15:18;;;;;;;0.63;0.63;;;;;;;;;;4953130;29;20533;-70
2023/01/18 03:17:56;;;;;;;1.00;1.00;;;;;;;;;;4952713;29;20434;-66
2023/01/18 03:20:32;;;;;;;1.00;1.00;;;;;;;;;;4952829;28;21129;-70
2023/01/18 03:25:54;;;;;;;1.10;1.10;;;;;;;;;;4952051;28;21021;-70
2023/01/18 03:34:28;;;;;;;1.10;1.10;;;;;;;;;;4952273;29;20780;-67
2023/01/18 03:36:55;;;;;;;1.10;1.10;;;;;;;;;;4952659;29;20821;-67
2023/01/18 03:39:21;;;;;;;1.00;1.00;;;;;;;;;;4952787;28;20438;-68
2023/01/18 03:41:49;;;;;;;0.97;0.97;;;;;;;;;;4953046;29;20439;-68
2023/01/18 03:44:35;;;;;;;0.77;0.77;;;;;;;;;;4952275;29;20478;-68
2023/01/18 03:47:02;;;;;;;9.10;6.60;;;;;;;;;;4952438;28;20435;-67
2023/01/18 03:49:29;;;;;;;4.20;4.00;;;;;;;;;;4950824;29;20439;-68
2023/01/18 03:52:00;;;;;;;3.00;2.87;;;;;;;;;;4952317;29;20982;-68
2023/01/18 03:54:33;;;;;;;2.20;2.20;;;;;;;;;;4952482;29;20435;-66
2023/01/18 03:56:59;;;;;;;1.00;1.00;;;;;;;;;;4952424;29;20434;-69
2023/01/18 03:59:28;;;;;;;4.00;1.00;;;;;;;;;;4951710;29;20450;-67
2023/01/18 04:01:54;;;;;;;1.20;1.20;;;;;;;;;;4935302;29;20443;-69
2023/01/18 04:04:20;;;;;;;1.70;1.53;;;;;;;;;;4933418;29;20435;-67
2023/01/18 04:06:46;;;;;;;1.10;1.10;;;;;;;;;;4952138;29;20990;-69
2023/01/18 04:09:12;;;;;;;2.33;2.23;;;;;;;;;;4950949;28;20813;-68
2023/01/18 04:11:38;;;;;;;2.20;2.20;;;;;;;;;;4952137;29;20451;-67
2023/01/18 04:14:04;;;;;;;3.13;1.80;;;;;;;;;;4951587;29;20506;-68
2023/01/18 04:16:29;;;;;;;1.60;1.60;;;;;;;;;;4951857;28;20442;-69
2023/01/18 04:18:55;;;;;;;1.50;1.50;;;;;;;;;;4951504;29;20556;-68
2023/01/18 04:21:21;;;;;;;1.57;1.57;;;;;;;;;;4952176;29;20419;-70
2023/01/18 04:23:47;;;;;;;4.90;2.10;;;;;;;;;;4953646;28;20481;-67
2023/01/18 04:26:15;;;;;;;1.50;1.50;;;;;;;;;;4952058;28;20462;-71
2023/01/18 04:28:41;;;;;;;1.43;1.43;;;;;;;;;;4951517;28;20434;-69
2023/01/18 04:31:07;;;;;;;1.10;1.07;;;;;;;;;;4952298;28;20533;-68
2023/01/18 04:33:33;;;;;;;1.50;1.50;;;;;;;;;;4951821;29;20482;-68
2023/01/18 04:36:00;;;;;;;1.87;1.73;;;;;;;;;;4952147;29;20439;-68
2023/01/18 04:38:27;;;;;;;1.63;1.63;;;;;;;;;;4950559;28;20458;-69
2023/01/18 04:40:53;;;;;;;2.00;2.00;;;;;;;;;;4951511;29;20443;-68
2023/01/18 04:43:19;;;;;;;1.90;1.80;;;;;;;;;;4952384;28;20435;-68
2023/01/18 04:45:52;;;;;;;1.77;1.77;;;;;;;;;;4952289;29;20442;-68
2023/01/18 04:48:18;;;;;;;1.80;1.80;;;;;;;;;;4951063;29;20411;-67
2023/01/18 04:50:45;;;;;;;1.30;1.30;;;;;;;;;;4952142;28;20578;-67
2023/01/18 04:53:11;;;;;;;1.57;1.57;;;;;;;;;;4951844;29;20482;-68
2023/01/18 04:55:37;;;;;;;1.43;1.33;;;;;;;;;;4951590;28;20454;-67
2023/01/18 04:58:03;;;;;;;1.60;1.60;;;;;;;;;;4951047;29;20935;-69
2023/01/18 05:00:29;;;;;;;1.83;1.03;;;;;;;;;;4952182;28;20924;-67
2023/01/18 05:02:55;;;;;;;1.57;1.57;;;;;;;;;;4951365;29;20423;-68
2023/01/18 05:05:21;;;;;;;1.87;1.77;;;;;;;;;;4951843;28;20439;-68
2023/01/18 05:07:47;;;;;;;1.30;1.30;;;;;;;;;;4952163;28;20431;-68
2023/01/18 05:10:13;;;;;;;1.30;1.30;;;;;;;;;;4952253;28;20950;-68
2023/01/18 05:12:39;;;;;;;1.73;1.63;;;;;;;;;;4951162;28;20501;-70
2023/01/18 05:15:06;;;;;;;2.13;2.03;;;;;;;;;;4951827;28;20434;-68
2023/01/18 05:17:33;;;;;;;2.00;1.90;;;;;;;;;;4951134;29;21103;-67
2023/01/18 05:20:00;;;;;;;1.73;1.70;;;;;;;;;;4950611;28;20808;-70
2023/01/18 05:22:27;;;;;;;1.83;1.83;;;;;;;;;;4949899;28;20469;-68
2023/01/18 05:24:53;;;;;;;1.40;1.40;;;;;;;;;;4950912;28;20478;-69
2023/01/18 05:27:20;;;;;;;1.93;1.93;;;;;;;;;;4952021;28;20438;-66
2023/01/18 05:29:47;;;;;;;2.97;1.67;;;;;;;;;;4951658;28;20862;-68
2023/01/18 05:32:14;;;;;;;2.10;2.00;;;;;;;;;;4951541;28;20838;-69
2023/01/18 05:34:40;;;;;;;2.10;2.00;;;;;;;;;;4951245;28;20466;-67
2023/01/18 05:37:06;;;;;;;6.33;2.37;;;;;;;;;;4951501;29;20485;-68
2023/01/18 05:39:32;;;;;;;2.10;2.00;;;;;;;;;;4951235;28;20954;-68
2023/01/18 05:41:58;;;;;;;1.57;1.37;;;;;;;;;;4952549;28;20525;-66
2023/01/18 05:44:24;;;;;;;1.73;1.70;;;;;;;;;;4952758;28;20450;-67
2023/01/18 05:46:51;;;;;;;1.53;1.53;;;;;;;;;;4951331;28;20442;-67
2023/01/18 05:49:17;;;;;;;1.33;1.33;;;;;;;;;;4933431;29;20778;-68
2023/01/18 05:51:43;;;;;;;2.10;1.63;;;;;;;;;;4955091;29;20437;-67
2023/01/18 05:54:10;;;;;;;1.20;1.20;;;;;;;;;;4955386;28;20823;-69
2023/01/18 05:56:36;;;;;;;1.63;1.53;;;;;;;;;;4954171;28;20442;-66
2023/01/18 05:59:02;;;;;;;5.10;1.60;;;;;;;;;;4953840;29;20449;-67
2023/01/18 06:01:28;;;;;;;1.63;1.63;;;;;;;;;;4955711;28;20994;-67
2023/01/18 06:03:54;;;;;;;2.30;1.70;;;;;;;;;;4954811;28;20451;-68
2023/01/18 06:06:20;;;;;;;1.60;1.60;;;;;;;;;;4954906;29;20481;-67
2023/01/18 06:08:46;;;;;;;2.40;2.17;;;;;;;;;;4954171;28;20438;-67
2023/01/18 06:11:12;;;;;;;2.17;1.87;;;;;;;;;;4954794;28;20811;-68
2023/01/18 06:13:38;;;;;;;3.60;1.70;;;;;;;;;;4953638;28;20497;-68
2023/01/18 06:16:04;;;;;;;2.10;2.00;;;;;;;;;;4937359;29;21026;-66
2023/01/18 06:18:31;;;;;;;1.70;1.70;;;;;;;;;;4935887;28;20823;-66
2023/01/18 06:20:58;;;;;;;4.57;1.83;;;;;;;;;;4954465;29;20812;-66
2023/01/18 06:23:24;;;;;;;1.63;1.63;;;;;;;;;;4954566;29;20482;-67
2023/01/18 06:25:50;;;;;;;1.90;1.80;;;;;;;;;;4955583;28;20439;-67
2023/01/18 06:28:16;;;;;;;3.10;2.90;;;;;;;;;;4953766;29;20530;-67
2023/01/18 06:30:42;;;;;;;2.00;1.90;;;;;;;;;;4953644;28;20860;-67
2023/01/18 06:33:11;;;;;;;1.70;1.60;;;;;;;;;;4954031;28;21130;-67
2023/01/18 06:35:37;;;;;;;2.37;2.10;;;;;;;;;;4954028;28;20847;-67
2023/01/18 06:38:03;;;;;;;2.67;2.63;;;;;;;;;;4952062;28;20530;-67
2023/01/18 06:40:29;;;;;;;1.90;1.83;;;;;;;;;;4951552;28;20431;-68
2023/01/18 06:42:56;;;;;;;1.97;1.97;;;;;;;;;;4953749;28;20506;-66
2023/01/18 06:45:24;;;;;;;2.00;1.80;;;;;;;;;;4953151;29;20986;-67
2023/01/18 06:47:50;;;;;;;2.63;2.53;;;;;;;;;;4952586;29;20505;-67
2023/01/18 06:50:16;;;;;;;2.53;2.40;;;;;;;;;;4953715;28;20443;-67
2023/01/18 06:52:43;;;;;;;2.40;2.20;;;;;;;;;;4936309;29;20478;-67
2023/01/18 06:55:09;;;;;;;2.27;2.17;;;;;;;;;;4954256;28;21446;-67
2023/01/18 06:57:36;;;;;;;2.43;2.33;;;;;;;;;;4935943;29;20446;-68
2023/01/18 07:00:04;;;;;;;2.03;1.93;;;;;;;;;;4953233;28;20530;-69
2023/01/18 07:02:31;;;;;;;1.90;1.90;;;;;;;;;;4953138;28;20439;-67
2023/01/18 07:04:57;;;;;;;3.90;3.33;;;;;;;;;;4953687;28;20439;-66
2023/01/18 07:07:23;;;;;;;7.43;2.63;;;;;;;;;;4952284;28;20449;-63
2023/01/18 07:09:49;;;;;;;2.60;2.50;;;;;;;;;;4951397;28;21510;-66
2023/01/18 07:12:15;;;;;;;2.60;2.50;;;;;;;;;;4952386;29;20478;-66
2023/01/18 07:14:41;;;;;;;2.40;2.30;;;;;;;;;;4951677;29;20435;-66
2023/01/18 07:17:07;;;;;;;2.63;2.43;;;;;;;;;;4951804;29;20437;-66
2023/01/18 07:19:33;;;;;;;2.70;2.60;;;;;;;;;;4952145;29;20998;-66
2023/01/18 07:22:00;;;;;;;2.93;2.67;;;;;;;;;;4951857;28;20508;-66
2023/01/18 07:24:26;;;;;;;2.77;2.60;;;;;;;;;;4952892;28;20505;-66
2023/01/18 07:26:53;;;;;;;3.00;2.90;;;;;;;;;;4952976;28;20451;-66
2023/01/18 07:29:19;;;;;;;3.17;3.00;;;;;;;;;;4953313;28;20954;-66
2023/01/18 07:31:45;;;;;;;2.67;2.47;;;;;;;;;;4935094;29;20814;-67
2023/01/18 07:34:12;;;;;;;3.17;2.77;;;;;;;;;;4952655;29;20431;-66
2023/01/18 07:36:38;;;;;;;5.73;3.23;;;;;;;;;;4951983;28;20938;-66
2023/01/18 07:39:05;;;;;;;2.50;2.40;;;;;;;;;;4952150;28;20445;-68
2023/01/18 07:41:31;;;;;;;2.83;2.73;;;;;;;;;;4953387;28;20446;-66
2023/01/18 07:43:57;;;;;;;3.00;2.90;;;;;;;;;;4952528;29;20446;-65
2023/01/18 07:46:24;;;;;;;3.20;3.00;;;;;;;;;;4952441;29;20443;-70
2023/01/18 07:48:51;;;;;;;2.87;2.77;;;;;;;;;;4951341;29;20931;-67
2023/01/18 07:51:18;;;;;;;2.67;2.53;;;;;;;;;;4952629;29;20407;-65
2023/01/18 07:53:44;;;;;;;2.73;2.63;;;;;;;;;;4952178;29;20493;-67
2023/01/18 07:56:12;;;;;;;7.63;2.60;;;;;;;;;;4952328;29;20478;-66
2023/01/18 07:58:38;;;;;;;2.20;1.60;;;;;;;;;;4945751;28;20955;-66
2023/01/18 08:01:05;;;;;;;1.90;1.90;;;;;;;;;;4949906;28;20431;-66
2023/01/18 08:03:31;;;;;;;2.43;2.33;;;;;;;;;;4950402;28;20426;-66
2023/01/18 08:06:01;;;;;;;4.03;1.97;;;;;;;;;;4952413;28;20959;-66
2023/01/18 08:08:27;;;;;;;3.00;2.80;;;;;;;;;;4951192;29;20412;-66
2023/01/18 08:10:58;;;;;;;5.70;2.40;;;;;;;;;;4935495;29;20274;-66
2023/01/18 08:13:24;;;;;;;1.93;1.90;;;;;;;;;;4952819;28;20994;-66
2023/01/18 08:15:51;;;;;;;2.90;2.70;;;;;;;;;;4935297;29;20453;-65
2023/01/18 08:18:17;;;;;;;3.37;3.17;;;;;;;;;;4950528;29;20483;-66
2023/01/18 08:20:44;;;;;;;2.50;2.50;;;;;;;;;;4951298;29;20444;-65
2023/01/18 08:23:10;;;;;;;2.70;2.53;;;;;;;;;;4951835;29;20536;-66
2023/01/18 08:25:36;;;;;;;2.83;2.63;;;;;;;;;;4948218;28;20455;-66
2023/01/18 08:28:02;;;;;;;2.70;2.60;;;;;;;;;;4951237;29;20438;-66
2023/01/18 08:30:30;;;;;;;2.07;1.97;;;;;;;;;;4950319;29;20442;-66
2023/01/18 08:32:57;;;;;;;2.57;2.07;;;;;;;;;;4949890;29;20526;-66
2023/01/18 08:35:24;;;;;;;2.37;2.23;;;;;;;;;;4951621;28;20438;-64
2023/01/18 08:37:51;;;;;;;2.83;2.63;;;;;;;;;;4950446;28;20430;-66
2023/01/18 08:40:17;;;;;;;2.30;2.20;;;;;;;;;;4948018;29;20442;-67
2023/01/18 08:42:43;;;;;;;7.03;2.90;;;;;;;;;;4950042;29;20458;-66
2023/01/18 08:45:09;;;;;;;3.47;3.17;;;;;;;;;;4952018;28;20872;-67
2023/01/18 08:47:35;;;;;;;2.30;2.20;;;;;;;;;;4950068;29;20965;-68
2023/01/18 08:50:01;;;;;;;3.43;2.20;;;;;;;;;;4950596;29;20426;-66
2023/01/18 08:52:28;;;;;;;2.23;1.67;;;;;;;;;;4950354;28;20588;-66
2023/01/18 08:54:54;;;;;;;2.67;2.57;;;;;;;;;;4950474;29;20438;-68
2023/01/18 08:57:20;;;;;;;2.40;2.20;;;;;;;;;;4933046;29;20824;-66
2023/01/18 08:59:46;;;;;;;2.10;2.00;;;;;;;;;;4949496;29;20434;-66
2023/01/18 09:02:12;;;;;;;6.70;2.57;;;;;;;;;;4949560;28;20439;-66
2023/01/18 09:04:38;;;;;;;2.53;2.43;;;;;;;;;;4951307;28;20423;-66
2023/01/18 09:07:04;;;;;;;2.43;2.33;;;;;;;;;;4950087;29;20931;-66
2023/01/18 09:09:30;;;;;;;3.17;1.93;;;;;;;;;;4949229;29;20824;-69
2023/01/18 09:11:57;;;;;;;2.20;2.00;;;;;;;;;;4951470;29;20481;-67
2023/01/18 09:14:23;;;;;;;2.40;2.20;;;;;;;;;;4933720;29;20529;-66
2023/01/18 09:16:49;;;;;;;5.77;2.40;;;;;;;;;;4933405;29;20522;-67
2023/01/18 09:19:15;;;;;;;4.20;3.03;;;;;;;;;;4950933;28;20450;-66
2023/01/18 09:21:41;;;;;;;2.80;2.70;;;;;;;;;;4951449;29;20791;-67
2023/01/18 09:24:07;;;;;;;3.40;3.20;;;;;;;;;;4953593;28;20497;-66
2023/01/18 09:26:33;;;;;;;2.03;1.93;;;;;;;;;;4955355;29;20427;-66
2023/01/18 09:28:59;;;;;;;2.00;2.00;;;;;;;;;;4954885;29;20437;-66
2023/01/18 09:31:26;;;;;;;4.20;2.17;;;;;;;;;;4954654;28;20452;-67
2023/01/18 09:33:52;;;;;;;1.87;1.87;;;;;;;;;;4954445;28;21013;-67
2023/01/18 09:36:20;;;;;;;4.37;3.00;;;;;;;;;;4938149;29;20525;-67
2023/01/18 09:38:46;;;;;;;2.47;2.37;;;;;;;;;;4953737;29;20474;-66
2023/01/18 09:41:24;;;;;;;2.17;2.07;;;;;;;;;;4954673;28;20934;-66
2023/01/18 09:43:52;;;;;;;6.33;3.10;;;;;;;;;;4955344;28;20915;-66
2023/01/18 09:46:20;;;;;;;4.77;2.10;;;;;;;;;;4937811;29;20444;-67
2023/01/18 09:48:52;;;;;;;1.97;1.87;;;;;;;;;;4954078;29;20435;-66
2023/01/18 09:51:22;;;;;;;2.50;2.37;;;;;;;;;;4954598;29;20442;-66
2023/01/18 09:53:48;;;;;;;4.03;2.97;;;;;;;;;;4954620;29;20485;-66
2023/01/18 09:56:18;;;;;;;4.13;2.50;;;;;;;;;;4953955;29;20807;-66
2023/01/18 09:58:49;;;;;;;1.40;1.40;;;;;;;;;;4954000;29;20530;-66
2023/01/18 10:01:17;;;;;;;2.00;2.00;;;;;;;;;;4954449;28;20922;-66
2023/01/18 10:03:46;;;;;;;2.43;2.33;;;;;;;;;;4954208;29;20521;-66
2023/01/18 10:06:17;;;;;;;2.27;2.17;;;;;;;;;;4954124;29;20525;-66
2023/01/18 10:08:49;;;;;;;1.70;1.60;;;;;;;;;;4953219;29;20441;-66
2023/01/18 10:11:21;;;;;;;2.70;2.47;;;;;;;;;;4954610;29;20484;-66
2023/01/18 10:14:02;;;;;;;2.33;1.70;;;;;;;;;;4954384;29;20625;-65
2023/01/18 10:16:28;;;;;;;2.30;2.20;;;;;;;;;;4953923;29;20434;-66
2023/01/18 10:18:56;;;;;;;2.20;2.10;;;;;;;;;;4954255;29;20505;-66
2023/01/18 10:21:27;;;;;;;2.10;1.83;;;;;;;;;;4954509;29;20961;-66
2023/01/18 10:23:56;;;;;;;2.53;2.53;;;;;;;;;;4953477;29;20990;-66
2023/01/18 10:26:22;;;;;;;1.70;1.67;;;;;;;;;;4955175;28;20468;-66
2023/01/18 10:28:52;;;;;;;5.70;1.60;;;;;;;;;;4953493;28;20919;-66
2023/01/18 10:31:36;;;;;;;1.80;1.70;;;;;;;;;;4954154;29;20939;-68
2023/01/18 10:34:03;;;;;;;3.40;1.97;;;;;;;;;;4954570;28;20618;-66
2023/01/18 10:36:37;;;;;;;2.50;2.30;;;;;;;;;;4953469;28;20434;-67
2023/01/18 10:39:24;;;;;;;2.80;2.63;;;;;;;;;;4953035;29;21038;-66
2023/01/18 10:41:50;;;;;;;3.17;2.70;;;;;;;;;;4953052;29;20446;-66
2023/01/18 10:44:16;;;;;;;2.27;2.17;;;;;;;;;;4953693;28;20427;-66
2023/01/18 10:46:43;;;;;;;2.53;2.43;;;;;;;;;;4952677;29;20805;-68
2023/01/18 10:49:29;;;;;;;2.30;2.10;;;;;;;;;;4936854;29;20443;-66
2023/01/18 10:51:55;;;;;;;2.10;2.00;;;;;;;;;;4952391;29;20473;-67
2023/01/18 10:54:22;;;;;;;2.70;2.50;;;;;;;;;;4953656;29;20478;-67
2023/01/18 10:56:48;;;;;;;2.07;1.97;;;;;;;;;;4953475;29;20451;-67
2023/01/18 10:59:23;;;;;;;2.30;2.17;;;;;;;;;;4953113;29;20597;-66
2023/01/18 11:01:52;;;;;;;2.57;2.47;;;;;;;;;;4952770;29;20438;-66
2023/01/18 11:04:22;;;;;;;2.00;1.90;;;;;;;;;;4953276;29;20574;-67
2023/01/18 11:06:51;;;;;;;1.90;1.80;;;;;;;;;;4952709;28;20501;-66
2023/01/18 11:09:35;;;;;;;2.30;2.20;;;;;;;;;;4952103;29;20941;-67
2023/01/18 11:12:40;;;;;;;2.47;2.47;;;;;;;;;;4934849;29;20475;-67
2023/01/18 11:15:14;;;;;;;2.17;1.73;;;;;;;;;;4952435;29;20433;-67
2023/01/18 11:17:56;;;;;;;2.20;1.87;;;;;;;;;;4952926;28;20575;-69
2023/01/18 11:20:37;;;;;;;1.70;1.70;;;;;;;;;;4952338;29;20473;-67
2023/01/18 11:23:14;;;;;;;2.13;2.03;;;;;;;;;;4952096;29;20489;-67
2023/01/18 11:25:50;;;;;;;1.30;1.30;;;;;;;;;;4952467;29;20518;-67
2023/01/18 11:28:25;;;;;;;1.80;1.80;;;;;;;;;;4935009;29;20489;-66
2023/01/18 11:31:21;;;;;;;2.40;1.80;;;;;;;;;;4953102;28;20423;-67
2023/01/18 11:33:55;;;;;;;1.30;1.30;;;;;;;;;;4934835;29;20494;-66
2023/01/18 11:36:34;;;;;;;2.27;2.03;;;;;;;;;;4951872;28;20422;-67
2023/01/18 11:39:23;;;;;;;2.40;2.20;;;;;;;;;;4934052;29;20431;-67
2023/01/18 11:41:49;;;;;;;2.73;2.00;;;;;;;;;;4951565;29;20836;-67
2023/01/18 11:44:21;;;;;;;1.67;1.67;;;;;;;;;;4950797;29;20434;-67
2023/01/18 11:46:49;;;;;;;1.77;1.57;;;;;;;;;;4934127;29;20498;-66
2023/01/18 11:49:25;;;;;;;1.50;1.50;;;;;;;;;;4950750;29;20459;-66
2023/01/18 11:51:54;;;;;;;4.40;2.90;;;;;;;;;;4951832;28;20427;-66
2023/01/18 11:54:27;;;;;;;1.77;1.73;;;;;;;;;;4951474;29;20843;-66
2023/01/18 11:56:55;;;;;;;2.03;1.93;;;;;;;;;;4951671;29;20425;-66
2023/01/18 11:59:29;;;;;;;2.33;2.13;;;;;;;;;;4950148;29;20800;-67
2023/01/18 12:02:01;;;;;;;2.37;2.27;;;;;;;;;;4950119;29;20509;-66
2023/01/18 12:04:42;;;;;;;1.93;1.83;;;;;;;;;;4950745;29;20434;-67
2023/01/18 12:07:23;;;;;;;1.97;1.87;;;;;;;;;;4951378;28;20442;-67
2023/01/18 12:09:57;;;;;;;3.87;3.03;;;;;;;;;;5144819;27;20543;-67
2023/01/18 12:12:30;;;;;;;2.40;2.30;;;;;;;;;;5147323;27;20445;-67
2023/01/18 12:15:08;;;;;;;4.23;2.30;;;;;;;;;;5147298;27;20412;-66
2023/01/18 12:17:52;;;;;;;2.77;2.03;;;;;;;;;;5146608;27;20442;-67
2023/01/18 12:20:37;;;;;;;3.70;2.20;;;;;;;;;;5145546;27;20811;-67
2023/01/18 12:23:03;;;;;;;2.33;2.30;;;;;;;;;;5144941;27;20433;-68
2023/01/18 12:25:38;;;;;;;2.20;2.10;;;;;;;;;;5138175;27;20438;-67
2023/01/18 12:28:10;;;;;;;1.90;1.80;;;;;;;;;;5140475;27;20512;-67
2023/01/18 12:30:47;;;;;;;2.17;2.07;;;;;;;;;;5138631;27;20453;-67
2023/01/18 12:33:17;;;;;;;2.40;2.30;;;;;;;;;;5137713;27;20908;-67
2023/01/18 12:35:58;;;;;;;2.00;2.00;;;;;;;;;;5139484;27;20526;-67
2023/01/18 12:38:28;;;;;;;2.60;2.40;;;;;;;;;;5141819;27;20421;-67
2023/01/18 12:41:14;;;;;;;2.20;2.20;;;;;;;;;;5146836;27;20520;-68
2023/01/18 12:44:05;;;;;;;2.00;1.90;;;;;;;;;;5147801;27;20416;-67
2023/01/18 12:46:51;;;;;;;2.70;2.50;;;;;;;;;;5116923;27;20476;-68
2023/01/18 12:49:20;;;;;;;3.70;2.73;;;;;;;;;;5147117;27;20489;-68
2023/01/18 12:51:52;;;;;;;2.30;2.20;;;;;;;;;;5148632;27;20475;-67
2023/01/18 12:54:28;;;;;;;2.97;2.77;;;;;;;;;;5147543;27;20429;-67
2023/01/18 12:56:55;;;;;;;2.53;2.23;;;;;;;;;;5147743;27;20417;-68
2023/01/18 12:59:33;;;;;;;2.23;1.90;;;;;;;;;;5146867;27;20509;-68
2023/01/18 13:02:03;;;;;;;2.80;2.70;;;;;;;;;;5146156;27;20441;-68
2023/01/18 13:04:33;;;;;;;11.93;6.70;;;;;;;;;;5145569;27;20422;-67
2023/01/18 13:07:01;;;;;;;2.30;2.23;;;;;;;;;;5126617;27;20434;-68
2023/01/18 13:09:32;;;;;;;2.20;2.20;;;;;;;;;;5137133;27;20497;-67
2023/01/18 13:12:00;;;;;;;2.90;2.73;;;;;;;;;;5138115;27;22062;-67
2023/01/18 13:14:40;;;;;;;4.70;3.50;;;;;;;;;;5137168;27;20430;-67
2023/01/18 13:17:20;;;;;;;2.80;2.70;;;;;;;;;;5139007;27;20438;-67
2023/01/18 13:19:58;;;;;;;15.03;10.20;;;;;;;;;;5139884;27;20430;-67
2023/01/18 13:22:27;;;;;;;6.93;4.73;;;;;;;;;;5133992;27;20926;-69
2023/01/18 13:25:12;;;;;;;3.47;3.17;;;;;;;;;;5131992;27;20457;-69
2023/01/18 13:27:54;;;;;;;2.83;2.63;;;;;;;;;;5133775;27;20938;-69
2023/01/18 13:30:20;;;;;;;2.77;2.50;;;;;;;;;;5133335;27;20414;-67
2023/01/18 13:32:48;;;;;;;1.90;1.80;;;;;;;;;;5114777;27;20430;-67
2023/01/18 13:35:27;;;;;;;2.97;2.77;;;;;;;;;;5133240;27;20415;-67
2023/01/18 13:37:54;;;;;;;2.80;2.20;;;;;;;;;;5131752;27;20442;-69
2023/01/18 13:40:35;;;;;;;2.70;2.50;;;;;;;;;;5132850;27;21050;-67
2023/01/18 13:43:02;;;;;;;4.73;2.90;;;;;;;;;;5132608;27;20432;-66
2023/01/18 13:45:29;;;;;;;2.77;2.57;;;;;;;;;;5131697;27;20464;-69
2023/01/18 13:47:55;;;;;;;6.30;2.53;;;;;;;;;;5130745;27;20458;-67
2023/01/18 13:50:27;;;;;;;2.70;2.60;;;;;;;;;;5132324;27;20433;-67
2023/01/18 13:53:12;;;;;;;2.13;2.03;;;;;;;;;;5133112;27;20898;-67
2023/01/18 13:55:38;;;;;;;4.13;3.83;;;;;;;;;;5132976;27;21178;-68
2023/01/18 13:58:16;;;;;;;4.20;3.87;;;;;;;;;;5132656;27;20438;-67
2023/01/18 14:00:46;;;;;;;3.27;2.80;;;;;;;;;;5132800;27;20414;-68
2023/01/18 14:03:15;;;;;;;5.30;3.27;;;;;;;;;;5114329;27;20426;-67
2023/01/18 14:05:43;;;;;;;3.40;3.10;;;;;;;;;;5132609;27;20454;-67
2023/01/18 14:08:18;;;;;;;3.57;2.30;;;;;;;;;;5131783;27;20487;-66
2023/01/18 14:10:47;;;;;;;4.43;2.30;;;;;;;;;;5131539;27;20506;-68
2023/01/18 14:13:17;;;;;;;2.27;2.20;;;;;;;;;;5131412;27;20468;-67
2023/01/18 14:15:46;;;;;;;3.50;3.20;;;;;;;;;;5132313;27;20430;-68
2023/01/18 14:18:29;;;;;;;4.80;3.00;;;;;;;;;;5132104;27;20767;-69
2023/01/18 14:21:14;;;;;;;4.90;4.40;;;;;;;;;;5132216;27;20791;-66
2023/01/18 14:23:46;;;;;;;4.37;3.90;;;;;;;;;;5132228;27;20403;-67
2023/01/18 14:26:14;;;;;;;4.57;3.40;;;;;;;;;;5130957;27;20430;-70
2023/01/18 14:28:45;;;;;;;4.97;4.43;;;;;;;;;;5131426;27;20475;-67
2023/01/18 14:31:24;;;;;;;5.30;4.70;;;;;;;;;;5129896;27;20419;-67
2023/01/18 14:33:50;;;;;;;20.47;4.53;;;;;;;;;;5132222;27;20430;-68
2023/01/18 14:36:23;;;;;;;8.07;4.53;;;;;;;;;;5131837;27;21621;-67
2023/01/18 14:39:11;;;;;;;6.27;3.80;;;;;;;;;;5112956;27;20442;-67
2023/01/18 14:41:38;;;;;;;4.20;2.63;;;;;;;;;;5132182;27;20763;-68
2023/01/18 14:44:04;;;;;;;16.33;7.30;;;;;;;;;;5132020;27;20446;-69
2023/01/18 14:46:31;;;;;;;4.50;4.20;;;;;;;;;;5131075;27;20433;-67
2023/01/18 14:48:58;;;;;;;5.37;4.23;;;;;;;;;;5130312;27;20475;-68
2023/01/18 14:51:26;;;;;;;5.30;4.80;;;;;;;;;;5131374;27;20471;-67
2023/01/18 14:54:03;;;;;;;5.47;4.10;;;;;;;;;;5131647;27;21006;-67
2023/01/18 14:56:33;;;;;;;8.37;5.53;;;;;;;;;;5131230;27;20427;-68
2023/01/18 14:59:04;;;;;;;9.20;5.80;;;;;;;;;;5131037;27;20485;-67
2023/01/18 15:01:32;;;;;;;10.27;5.50;;;;;;;;;;5129203;27;20435;-67
2023/01/18 15:03:59;;;;;;;6.70;5.10;;;;;;;;;;5123122;27;20438;-67
2023/01/18 15:06:37;;;;;;;5.80;4.50;;;;;;;;;;5124766;27;20966;-67
2023/01/18 15:09:05;;;;;;;7.13;4.30;;;;;;;;;;5121927;27;20526;-68
2023/01/18 15:11:34;;;;;;;8.37;4.10;;;;;;;;;;5105336;27;20431;-67
2023/01/18 15:14:00;;;;;;;15.20;7.17;;;;;;;;;;5120848;27;20449;-67
2023/01/18 15:16:28;;;;;;;7.93;5.43;;;;;;;;;;5129993;27;20427;-67
2023/01/18 15:18:55;;;;;;;5.83;4.90;;;;;;;;;;5130738;27;20515;-68
2023/01/18 15:21:22;;;;;;;9.00;3.63;;;;;;;;;;5130042;27;20419;-67
2023/01/18 15:23:50;;;;;;;8.97;5.23;;;;;;;;;;5130569;27;20483;-67
2023/01/18 15:26:16;;;;;;;6.60;5.00;;;;;;;;;;5129869;27;20431;-68
2023/01/18 15:28:42;;;;;;;7.50;5.77;;;;;;;;;;5129597;27;20542;-67
2023/01/18 15:31:15;;;;;;;7.63;5.10;;;;;;;;;;5129800;27;20414;-68